Time;durP1;ratioP1;P1;durP2;ratioP2;P2;SDS_P1;SDS_P2;PMS_P1;PMS_P2;Temp;Humidity;BMP_temperature;BMP_pressure;BME280_temperature;BME280_humidity;BME280_pressure;Samples;Min_cycle;Max_cycle;Signal;HPM_P1;HPM_P2
2022/11/06 00:01:24;;;;;;;11.88;3.95;;;;;;;;;;6206832;23;20429;-89
2022/11/06 00:03:54;;;;;;;12.57;4.13;;;;;;;;;;6154749;23;20008;-90
2022/11/06 00:09:06;;;;;;;18.45;5.80;;;;;;;;;;6206619;23;20341;-89
2022/11/06 00:11:32;;;;;;;11.25;4.20;;;;;;;;;;6181011;23;20000;-89
2022/11/06 00:13:59;;;;;;;15.13;4.93;;;;;;;;;;6179605;23;20040;-89
2022/11/06 00:16:25;;;;;;;12.90;5.85;;;;;;;;;;6207914;23;20008;-89
2022/11/06 00:18:52;;;;;;;14.32;4.60;;;;;;;;;;6178599;23;20013;-89
2022/11/06 00:21:22;;;;;;;8.18;4.10;;;;;;;;;;6180188;23;20047;-89
2022/11/06 00:23:50;;;;;;;8.50;4.43;;;;;;;;;;6179825;23;20095;-89
2022/11/06 00:26:20;;;;;;;3.50;1.95;;;;;;;;;;6208042;23;20027;-89
2022/11/06 00:28:47;;;;;;;17.13;4.57;;;;;;;;;;6179702;23;20001;-89
2022/11/06 00:31:15;;;;;;;9.82;4.55;;;;;;;;;;6180346;23;20440;-89
2022/11/06 00:33:41;;;;;;;17.77;6.03;;;;;;;;;;6179971;23;20390;-89
2022/11/06 00:36:08;;;;;;;7.38;3.92;;;;;;;;;;6179913;23;20011;-89
2022/11/06 00:38:34;;;;;;;5.55;3.40;;;;;;;;;;6156078;23;20016;-90
2022/11/06 00:41:05;;;;;;;6.05;3.75;;;;;;;;;;6155163;23;20040;-89
2022/11/06 00:43:31;;;;;;;7.45;4.70;;;;;;;;;;6177029;22;20051;-89
2022/11/06 00:46:05;;;;;;;17.55;6.60;;;;;;;;;;6150281;23;20025;-89
2022/11/06 00:48:32;;;;;;;8.52;3.97;;;;;;;;;;6175452;23;20001;-90
2022/11/06 00:51:24;;;;;;;9.27;4.13;;;;;;;;;;6176010;23;20001;-89
2022/11/06 00:53:53;;;;;;;10.77;6.25;;;;;;;;;;6171336;23;20075;-89
2022/11/06 00:56:20;;;;;;;7.82;3.65;;;;;;;;;;6173920;23;20496;-89
2022/11/06 00:58:46;;;;;;;11.20;5.60;;;;;;;;;;6175163;23;20040;-89
2022/11/06 01:01:17;;;;;;;8.82;3.65;;;;;;;;;;6171568;23;20008;-90
2022/11/06 01:03:44;;;;;;;10.95;5.90;;;;;;;;;;6173590;23;20067;-89
2022/11/06 01:06:12;;;;;;;17.67;6.63;;;;;;;;;;6175458;23;20016;-89
2022/11/06 01:08:39;;;;;;;14.07;7.75;;;;;;;;;;6174181;23;20499;-89
2022/11/06 01:11:06;;;;;;;14.93;5.78;;;;;;;;;;6150842;23;20452;-89
2022/11/06 01:13:32;;;;;;;12.70;5.22;;;;;;;;;;6174678;23;20025;-90
2022/11/06 01:15:58;;;;;;;17.45;4.82;;;;;;;;;;6172068;23;20017;-89
2022/11/06 01:18:24;;;;;;;12.43;6.43;;;;;;;;;;6148693;23;20369;-89
2022/11/06 01:20:50;;;;;;;12.13;4.82;;;;;;;;;;6150328;23;20048;-90
2022/11/06 01:23:16;;;;;;;22.73;7.38;;;;;;;;;;6174067;23;20008;-89
2022/11/06 01:25:42;;;;;;;17.92;6.80;;;;;;;;;;6175296;23;20383;-89
2022/11/06 01:28:08;;;;;;;26.33;7.38;;;;;;;;;;6148020;23;20023;-89
2022/11/06 01:30:37;;;;;;;11.52;6.32;;;;;;;;;;6150362;23;20345;-90
2022/11/06 01:33:03;;;;;;;10.43;5.68;;;;;;;;;;6176209;23;20487;-89
2022/11/06 01:35:29;;;;;;;20.38;6.43;;;;;;;;;;6150225;23;20215;-90
2022/11/06 01:37:55;;;;;;;7.28;4.35;;;;;;;;;;6150463;23;20013;-89
2022/11/06 01:40:21;;;;;;;13.38;7.28;;;;;;;;;;6149734;23;20075;-89
2022/11/06 01:42:47;;;;;;;10.10;5.13;;;;;;;;;;6177132;23;20009;-89
2022/11/06 01:45:23;;;;;;;10.13;4.57;;;;;;;;;;6150601;23;20028;-90
2022/11/06 01:47:49;;;;;;;9.38;4.40;;;;;;;;;;6176922;23;20076;-89
2022/11/06 01:50:16;;;;;;;18.13;5.78;;;;;;;;;;6151186;23;20397;-89
2022/11/06 01:52:43;;;;;;;16.00;4.18;;;;;;;;;;6152063;23;20025;-90
2022/11/06 01:55:29;;;;;;;20.00;8.27;;;;;;;;;;6177000;23;20336;-90
2022/11/06 01:57:56;;;;;;;21.48;8.63;;;;;;;;;;6178364;23;20103;-90
2022/11/06 02:00:22;;;;;;;12.35;3.97;;;;;;;;;;6152174;23;20013;-90
2022/11/06 02:02:49;;;;;;;12.60;5.85;;;;;;;;;;6174953;23;20012;-90
2022/11/06 02:05:16;;;;;;;12.30;4.93;;;;;;;;;;6177693;23;20036;-90
2022/11/06 02:07:42;;;;;;;15.68;8.20;;;;;;;;;;6175373;23;20013;-90
2022/11/06 02:10:09;;;;;;;7.55;4.47;;;;;;;;;;6152949;23;20009;-90
2022/11/06 02:12:38;;;;;;;9.38;4.95;;;;;;;;;;6150524;23;20009;-90
2022/11/06 02:15:14;;;;;;;14.05;5.95;;;;;;;;;;6177992;23;20481;-89
2022/11/06 02:17:46;;;;;;;12.88;5.68;;;;;;;;;;6174667;23;20009;-90
2022/11/06 02:20:18;;;;;;;10.15;5.43;;;;;;;;;;6177697;23;20023;-90
2022/11/06 02:23:00;;;;;;;11.77;5.50;;;;;;;;;;6175122;23;20005;-90
2022/11/06 02:25:46;;;;;;;14.52;5.80;;;;;;;;;;6175820;23;20081;-89
2022/11/06 02:28:15;;;;;;;7.38;4.32;;;;;;;;;;6176593;23;20087;-90
2022/11/06 02:30:44;;;;;;;11.32;5.38;;;;;;;;;;6177142;23;20090;-90
2022/11/06 02:33:13;;;;;;;18.40;6.68;;;;;;;;;;6174263;23;20121;-90
2022/11/06 02:35:46;;;;;;;14.35;6.85;;;;;;;;;;6179519;23;20013;-90
2022/11/06 02:38:24;;;;;;;10.70;5.05;;;;;;;;;;6176519;23;20326;-90
2022/11/06 02:40:52;;;;;;;10.88;5.65;;;;;;;;;;6177300;23;20013;-90
2022/11/06 02:43:21;;;;;;;12.02;4.85;;;;;;;;;;6176250;22;20005;-90
2022/11/06 02:45:50;;;;;;;16.92;6.47;;;;;;;;;;6208117;23;20063;-90
2022/11/06 02:48:19;;;;;;;13.90;7.10;;;;;;;;;;6181450;23;20016;-90
2022/11/06 02:50:47;;;;;;;14.13;5.75;;;;;;;;;;6208038;23;20005;-90
2022/11/06 02:53:14;;;;;;;6.50;3.70;;;;;;;;;;6180217;23;20005;-90
2022/11/06 02:55:45;;;;;;;11.02;4.85;;;;;;;;;;6182230;23;20012;-90
2022/11/06 02:58:22;;;;;;;10.77;5.60;;;;;;;;;;6206631;23;20007;-90
2022/11/06 03:01:04;;;;;;;15.88;7.10;;;;;;;;;;6208381;23;20055;-90
2022/11/06 03:03:31;;;;;;;21.88;8.15;;;;;;;;;;6206535;23;20041;-90
2022/11/06 03:06:03;;;;;;;15.00;8.02;;;;;;;;;;6180788;23;20009;-90
2022/11/06 03:08:32;;;;;;;21.88;7.43;;;;;;;;;;6180074;23;20099;-90
2022/11/06 03:11:21;;;;;;;17.65;7.50;;;;;;;;;;6207538;23;20004;-89
2022/11/06 03:14:06;;;;;;;8.02;4.85;;;;;;;;;;6181358;23;20007;-90
2022/11/06 03:16:56;;;;;;;9.23;4.50;;;;;;;;;;6181903;23;20433;-89
2022/11/06 03:19:22;;;;;;;10.98;5.95;;;;;;;;;;6164581;23;20015;-89
2022/11/06 03:21:58;;;;;;;12.25;5.97;;;;;;;;;;6181131;23;20401;-90
2022/11/06 03:24:27;;;;;;;17.52;7.28;;;;;;;;;;6206435;23;20039;-90
2022/11/06 03:26:54;;;;;;;10.70;4.13;;;;;;;;;;6180814;23;20421;-89
2022/11/06 03:29:26;;;;;;;13.60;7.30;;;;;;;;;;6180473;23;20012;-89
2022/11/06 03:32:07;;;;;;;15.20;5.13;;;;;;;;;;6179209;23;20004;-89
2022/11/06 03:34:54;;;;;;;20.63;7.68;;;;;;;;;;6181430;23;20015;-89
2022/11/06 03:37:24;;;;;;;21.50;8.38;;;;;;;;;;6206662;23;20000;-89
2022/11/06 03:39:53;;;;;;;11.63;5.68;;;;;;;;;;6179108;23;20022;-89
2022/11/06 03:42:21;;;;;;;11.13;6.00;;;;;;;;;;6181956;23;20406;-89
2022/11/06 03:44:50;;;;;;;11.93;6.65;;;;;;;;;;6176067;22;20070;-89
2022/11/06 03:47:22;;;;;;;6.30;4.00;;;;;;;;;;6177298;23;20413;-90
2022/11/06 03:49:54;;;;;;;18.98;7.70;;;;;;;;;;6176781;23;19997;-89
2022/11/06 03:52:40;;;;;;;5.97;3.83;;;;;;;;;;6175875;23;20446;-89
2022/11/06 03:55:17;;;;;;;12.18;6.85;;;;;;;;;;6176454;23;19998;-89
2022/11/06 03:57:55;;;;;;;22.25;7.70;;;;;;;;;;6174142;23;20009;-89
2022/11/06 04:00:21;;;;;;;15.38;6.13;;;;;;;;;;6177836;23;20005;-90
2022/11/06 04:03:03;;;;;;;14.27;7.75;;;;;;;;;;6174113;23;20009;-90
2022/11/06 04:05:31;;;;;;;11.63;4.53;;;;;;;;;;6175207;23;20449;-89
2022/11/06 04:16:13;;;;;;;9.63;5.22;;;;;;;;;;6177062;23;19952;-89
2022/11/06 04:18:39;;;;;;;6.55;4.70;;;;;;;;;;6176021;23;20414;-89
2022/11/06 04:21:26;;;;;;;15.13;6.95;;;;;;;;;;6175719;23;20373;-89
2022/11/06 04:27:01;;;;;;;14.20;5.63;;;;;;;;;;6176422;23;20016;-90
2022/11/06 04:29:33;;;;;;;8.75;4.93;;;;;;;;;;6175708;23;20111;-89
2022/11/06 04:32:15;;;;;;;10.43;4.93;;;;;;;;;;6173850;23;20012;-89
2022/11/06 04:35:04;;;;;;;10.55;6.63;;;;;;;;;;6175025;23;20121;-90
2022/11/06 04:37:37;;;;;;;10.70;5.15;;;;;;;;;;6175816;23;20484;-90
2022/11/06 04:40:21;;;;;;;10.57;5.28;;;;;;;;;;6175848;23;20012;-89
2022/11/06 04:42:50;;;;;;;6.32;4.32;;;;;;;;;;6174488;23;20480;-90
2022/11/06 04:45:36;;;;;;;10.57;5.05;;;;;;;;;;6176266;22;20024;-89
2022/11/06 04:48:04;;;;;;;7.80;3.83;;;;;;;;;;6173127;23;20063;-90
2022/11/06 04:50:33;;;;;;;9.10;4.80;;;;;;;;;;6175226;23;20460;-90
2022/11/06 04:53:00;;;;;;;16.75;5.07;;;;;;;;;;6175446;23;20356;-89
2022/11/06 04:55:28;;;;;;;19.92;4.85;;;;;;;;;;6174932;23;20013;-89
2022/11/06 04:57:54;;;;;;;8.60;5.22;;;;;;;;;;6174830;23;20527;-89
2022/11/06 05:00:20;;;;;;;15.68;6.68;;;;;;;;;;6175585;23;20016;-89
2022/11/06 05:02:46;;;;;;;11.20;6.10;;;;;;;;;;6147857;23;20067;-90
2022/11/06 05:05:12;;;;;;;17.25;5.72;;;;;;;;;;6174451;23;20009;-89
2022/11/06 05:07:46;;;;;;;12.88;5.30;;;;;;;;;;6174294;23;20025;-90
2022/11/06 05:10:19;;;;;;;13.77;6.75;;;;;;;;;;6150714;23;20064;-90
2022/11/06 05:12:46;;;;;;;11.27;3.72;;;;;;;;;;6149760;23;20017;-89
2022/11/06 05:15:12;;;;;;;10.93;5.50;;;;;;;;;;6175910;23;20016;-90
2022/11/06 05:17:38;;;;;;;4.20;1.85;;;;;;;;;;6173494;23;20001;-89
2022/11/06 05:20:05;;;;;;;15.98;6.97;;;;;;;;;;6174927;23;20302;-90
2022/11/06 05:25:15;;;;;;;7.00;4.13;;;;;;;;;;6175884;23;20144;-89
2022/11/06 05:27:41;;;;;;;9.70;6.10;;;;;;;;;;6174440;23;20013;-89
2022/11/06 05:30:08;;;;;;;15.00;5.30;;;;;;;;;;6150107;23;20019;-90
2022/11/06 05:32:34;;;;;;;5.40;3.08;;;;;;;;;;6173356;23;20067;-89
2022/11/06 05:35:00;;;;;;;14.93;3.67;;;;;;;;;;6149470;23;20012;-90
2022/11/06 05:37:32;;;;;;;12.85;5.93;;;;;;;;;;6149159;23;20493;-90
2022/11/06 05:39:58;;;;;;;13.13;5.57;;;;;;;;;;6150499;23;20017;-89
2022/11/06 05:42:24;;;;;;;9.57;4.75;;;;;;;;;;6176560;23;20381;-90
2022/11/06 05:44:56;;;;;;;14.68;5.38;;;;;;;;;;6175420;22;20024;-89
2022/11/06 05:47:22;;;;;;;12.27;6.32;;;;;;;;;;6150831;23;20021;-90
2022/11/06 05:49:48;;;;;;;5.75;3.10;;;;;;;;;;6174376;23;20507;-89
2022/11/06 05:52:14;;;;;;;9.68;5.30;;;;;;;;;;6175147;23;20116;-90
2022/11/06 05:54:40;;;;;;;12.10;5.30;;;;;;;;;;6149537;23;20013;-90
2022/11/06 05:57:06;;;;;;;10.35;5.28;;;;;;;;;;6174763;23;20568;-89
2022/11/06 05:59:32;;;;;;;5.78;3.00;;;;;;;;;;6150050;23;20019;-90
2022/11/06 06:01:58;;;;;;;9.43;5.32;;;;;;;;;;6174337;23;20122;-89
2022/11/06 06:04:24;;;;;;;9.13;4.85;;;;;;;;;;6149326;23;20013;-89
2022/11/06 06:06:50;;;;;;;5.85;2.80;;;;;;;;;;6173028;23;20441;-89
2022/11/06 06:09:16;;;;;;;9.82;4.22;;;;;;;;;;6148724;23;20009;-89
2022/11/06 06:11:43;;;;;;;10.07;4.95;;;;;;;;;;6150053;23;20100;-89
2022/11/06 06:14:09;;;;;;;6.68;3.13;;;;;;;;;;6174363;23;20016;-89
2022/11/06 06:16:35;;;;;;;11.07;3.53;;;;;;;;;;6174774;23;20452;-89
2022/11/06 06:19:01;;;;;;;5.85;2.42;;;;;;;;;;6147544;23;20468;-89
2022/11/06 06:21:27;;;;;;;16.35;4.95;;;;;;;;;;6150377;23;20016;-89
2022/11/06 06:23:53;;;;;;;9.18;3.22;;;;;;;;;;6174733;23;20013;-89
2022/11/06 06:26:19;;;;;;;15.35;4.75;;;;;;;;;;6149309;23;20096;-90
2022/11/06 06:28:47;;;;;;;6.45;4.55;;;;;;;;;;6150461;23;20156;-89
2022/11/06 06:31:13;;;;;;;9.88;3.85;;;;;;;;;;6176867;23;20002;-89
2022/11/06 06:33:39;;;;;;;14.35;5.18;;;;;;;;;;6176632;23;20385;-90
2022/11/06 06:36:06;;;;;;;8.40;3.90;;;;;;;;;;6150900;23;20024;-89
2022/11/06 06:38:32;;;;;;;9.45;4.20;;;;;;;;;;6176960;23;20005;-90
2022/11/06 06:41:02;;;;;;;14.60;5.47;;;;;;;;;;6152158;23;20024;-89
2022/11/06 06:43:28;;;;;;;9.98;3.47;;;;;;;;;;6174658;23;20087;-89
2022/11/06 06:45:56;;;;;;;16.05;3.53;;;;;;;;;;6177773;22;20453;-89
2022/11/06 06:48:22;;;;;;;6.10;2.97;;;;;;;;;;6175701;23;20441;-89
2022/11/06 06:50:48;;;;;;;17.80;4.07;;;;;;;;;;6177261;23;20059;-89
2022/11/06 06:53:14;;;;;;;11.85;5.10;;;;;;;;;;6151259;23;20013;-90
2022/11/06 06:55:40;;;;;;;16.80;5.25;;;;;;;;;;6176485;23;20020;-90
2022/11/06 06:58:06;;;;;;;9.32;4.18;;;;;;;;;;6150975;23;20009;-89
2022/11/06 07:00:32;;;;;;;11.10;3.97;;;;;;;;;;6176734;23;20100;-89
2022/11/06 07:02:58;;;;;;;13.55;4.20;;;;;;;;;;6149726;23;20131;-89
2022/11/06 07:05:24;;;;;;;8.32;3.63;;;;;;;;;;6175486;23;20009;-89
2022/11/06 07:07:50;;;;;;;10.50;4.10;;;;;;;;;;6174922;23;20112;-90
2022/11/06 07:10:17;;;;;;;6.65;2.97;;;;;;;;;;6176482;23;20005;-90
2022/11/06 07:12:43;;;;;;;8.43;2.03;;;;;;;;;;6176747;23;20029;-89
2022/11/06 07:15:09;;;;;;;10.48;3.67;;;;;;;;;;6151807;23;20013;-89
2022/11/06 07:17:35;;;;;;;14.23;4.15;;;;;;;;;;6149664;23;20427;-89
2022/11/06 07:20:01;;;;;;;12.88;3.55;;;;;;;;;;6176733;23;20063;-89
2022/11/06 07:22:27;;;;;;;8.40;3.20;;;;;;;;;;6150402;23;20069;-89
2022/11/06 07:24:53;;;;;;;10.73;3.92;;;;;;;;;;6177801;23;20001;-89
2022/11/06 07:27:19;;;;;;;12.40;4.20;;;;;;;;;;6149730;23;20028;-89
2022/11/06 07:29:45;;;;;;;12.15;4.00;;;;;;;;;;6177280;23;20008;-89
2022/11/06 07:32:11;;;;;;;22.42;3.80;;;;;;;;;;6175402;23;20008;-89
2022/11/06 07:34:37;;;;;;;17.15;4.07;;;;;;;;;;6176931;23;20017;-89
2022/11/06 07:37:07;;;;;;;9.23;2.88;;;;;;;;;;6175602;23;20036;-90
2022/11/06 07:39:33;;;;;;;10.27;3.42;;;;;;;;;;6175488;23;20005;-90
2022/11/06 07:41:59;;;;;;;10.07;2.50;;;;;;;;;;6174594;23;20009;-90
2022/11/06 07:44:25;;;;;;;16.10;4.75;;;;;;;;;;6176403;22;20021;-90
2022/11/06 07:46:51;;;;;;;13.32;3.60;;;;;;;;;;6174885;23;20496;-89
2022/11/06 07:49:17;;;;;;;9.75;4.18;;;;;;;;;;6150640;23;20033;-89
2022/11/06 07:51:44;;;;;;;10.00;4.13;;;;;;;;;;6149961;23;20013;-89
2022/11/06 07:54:11;;;;;;;9.45;3.20;;;;;;;;;;6151451;23;20071;-89
2022/11/06 07:56:37;;;;;;;9.75;3.28;;;;;;;;;;6177288;23;20128;-89
2022/11/06 07:59:03;;;;;;;9.02;2.90;;;;;;;;;;6153232;23;20013;-89
2022/11/06 08:01:29;;;;;;;10.50;3.40;;;;;;;;;;6149081;23;20353;-89
2022/11/06 08:03:55;;;;;;;11.77;3.45;;;;;;;;;;6175629;23;20046;-89
2022/11/06 08:06:21;;;;;;;23.67;4.72;;;;;;;;;;6173600;23;20067;-89
2022/11/06 08:08:47;;;;;;;11.60;3.97;;;;;;;;;;6176940;23;20063;-91
2022/11/06 08:11:14;;;;;;;13.57;3.90;;;;;;;;;;6175814;23;20005;-89
2022/11/06 08:13:40;;;;;;;11.30;3.42;;;;;;;;;;6177528;23;20001;-89
2022/11/06 08:16:07;;;;;;;19.13;3.65;;;;;;;;;;6174425;23;20059;-89
2022/11/06 08:18:34;;;;;;;12.00;2.83;;;;;;;;;;6174359;23;20087;-89
2022/11/06 08:21:00;;;;;;;8.23;3.10;;;;;;;;;;6174450;23;20096;-89
2022/11/06 08:23:26;;;;;;;10.27;3.28;;;;;;;;;;6175657;23;20005;-89
2022/11/06 08:25:54;;;;;;;9.40;3.45;;;;;;;;;;6175786;23;20005;-89
2022/11/06 08:28:20;;;;;;;12.77;3.63;;;;;;;;;;6175578;23;20009;-90
2022/11/06 08:30:46;;;;;;;14.52;4.18;;;;;;;;;;6149566;23;20373;-89
2022/11/06 08:33:12;;;;;;;8.05;2.65;;;;;;;;;;6151062;23;20343;-90
2022/11/06 08:35:38;;;;;;;15.60;3.25;;;;;;;;;;6174682;23;20005;-89
2022/11/06 08:38:04;;;;;;;13.80;3.05;;;;;;;;;;6150817;23;20047;-89
2022/11/06 08:40:30;;;;;;;13.30;3.13;;;;;;;;;;6175496;23;20009;-89
2022/11/06 08:43:00;;;;;;;14.02;3.25;;;;;;;;;;6149417;23;20024;-89
2022/11/06 08:45:26;;;;;;;10.23;3.53;;;;;;;;;;6176090;22;20021;-89
2022/11/06 08:47:52;;;;;;;9.93;2.55;;;;;;;;;;6174383;23;20366;-90
2022/11/06 08:50:18;;;;;;;8.02;3.20;;;;;;;;;;6150543;23;20298;-89
2022/11/06 08:52:44;;;;;;;7.03;3.15;;;;;;;;;;6150414;23;20009;-89
2022/11/06 08:55:10;;;;;;;13.73;3.40;;;;;;;;;;6174805;23;20011;-89
2022/11/06 08:57:36;;;;;;;6.15;2.97;;;;;;;;;;6174557;23;20012;-89
2022/11/06 09:00:03;;;;;;;7.22;2.63;;;;;;;;;;6150458;23;20012;-89
2022/11/06 09:02:29;;;;;;;7.80;3.10;;;;;;;;;;6171240;23;20009;-89
2022/11/06 09:04:55;;;;;;;8.25;3.10;;;;;;;;;;6149672;23;20377;-89
2022/11/06 09:07:21;;;;;;;10.18;3.28;;;;;;;;;;6150122;23;20461;-89
2022/11/06 09:09:47;;;;;;;5.95;2.13;;;;;;;;;;6149624;23;20020;-89
2022/11/06 09:12:13;;;;;;;8.82;2.85;;;;;;;;;;6175296;23;20441;-89
2022/11/06 09:14:39;;;;;;;12.82;3.10;;;;;;;;;;6174013;23;20016;-89
2022/11/06 09:17:05;;;;;;;11.63;3.50;;;;;;;;;;6173827;23;20102;-89
2022/11/06 09:19:31;;;;;;;10.68;3.05;;;;;;;;;;6149157;23;20117;-89
2022/11/06 09:21:57;;;;;;;7.70;2.80;;;;;;;;;;6176475;23;20005;-89
2022/11/06 09:24:23;;;;;;;12.52;2.67;;;;;;;;;;6148446;23;20467;-89
2022/11/06 09:26:49;;;;;;;9.15;2.65;;;;;;;;;;6148920;23;20103;-89
2022/11/06 09:29:15;;;;;;;12.02;2.35;;;;;;;;;;6149605;23;20395;-89
2022/11/06 09:31:42;;;;;;;5.60;2.17;;;;;;;;;;6149983;23;20111;-89
2022/11/06 09:34:08;;;;;;;5.68;2.80;;;;;;;;;;6174415;23;20337;-89
2022/11/06 09:36:35;;;;;;;9.35;2.42;;;;;;;;;;6150202;23;20096;-89
2022/11/06 09:39:01;;;;;;;8.73;2.58;;;;;;;;;;6173841;23;20091;-90
2022/11/06 09:41:46;;;;;;;7.13;2.42;;;;;;;;;;6150213;23;20021;-89
2022/11/06 09:44:21;;;;;;;5.75;2.10;;;;;;;;;;6177324;23;20345;-89
2022/11/06 09:46:48;;;;;;;9.73;2.45;;;;;;;;;;6178061;23;20004;-89
2022/11/06 09:49:17;;;;;;;5.70;2.15;;;;;;;;;;6179143;23;20051;-89
2022/11/06 09:51:48;;;;;;;7.32;2.30;;;;;;;;;;6178114;23;20035;-89
2022/11/06 09:54:23;;;;;;;7.43;2.58;;;;;;;;;;6180104;23;20004;-89
2022/11/06 09:56:50;;;;;;;9.93;3.85;;;;;;;;;;6179431;23;20047;-89
2022/11/06 09:59:18;;;;;;;12.13;3.80;;;;;;;;;;6180175;23;20012;-89
2022/11/06 10:01:44;;;;;;;7.80;1.85;;;;;;;;;;6179207;23;20013;-89
2022/11/06 10:04:28;;;;;;;8.27;2.40;;;;;;;;;;6205217;23;20008;-89
2022/11/06 10:06:55;;;;;;;5.53;2.70;;;;;;;;;;6178863;23;20009;-89
2022/11/06 10:09:21;;;;;;;5.63;2.60;;;;;;;;;;6179336;23;20021;-89
2022/11/06 10:11:47;;;;;;;5.45;2.58;;;;;;;;;;6208900;23;20051;-89
2022/11/06 10:14:19;;;;;;;6.28;2.35;;;;;;;;;;6207825;23;20336;-89
2022/11/06 10:16:45;;;;;;;3.97;2.88;;;;;;;;;;6181260;23;20055;-89
2022/11/06 10:19:11;;;;;;;4.75;1.77;;;;;;;;;;6180540;23;20666;-89
2022/11/06 10:21:56;;;;;;;11.15;2.47;;;;;;;;;;6181386;23;20310;-89
2022/11/06 10:24:34;;;;;;;6.35;2.15;;;;;;;;;;6208690;23;20016;-89
2022/11/06 10:27:01;;;;;;;2.53;1.42;;;;;;;;;;6181454;23;20009;-89
2022/11/06 10:29:51;;;;;;;4.35;1.58;;;;;;;;;;6208518;23;20005;-89
2022/11/06 10:32:37;;;;;;;6.60;2.10;;;;;;;;;;6180599;23;20008;-89
2022/11/06 10:35:03;;;;;;;4.35;2.20;;;;;;;;;;6207196;23;20020;-89
2022/11/06 10:37:35;;;;;;;3.83;1.77;;;;;;;;;;6208583;23;20009;-90
2022/11/06 10:40:03;;;;;;;7.10;2.25;;;;;;;;;;6206916;23;20130;-89
2022/11/06 10:42:37;;;;;;;3.45;1.40;;;;;;;;;;6181205;23;20360;-89
2022/11/06 10:45:14;;;;;;;7.57;1.90;;;;;;;;;;6152541;23;20021;-90
2022/11/06 10:48:04;;;;;;;11.23;2.30;;;;;;;;;;6176235;23;20036;-89
2022/11/06 10:50:38;;;;;;;8.32;2.85;;;;;;;;;;6176394;23;20476;-89
2022/11/06 10:53:33;;;;;;;6.68;2.22;;;;;;;;;;6175642;23;20005;-89
2022/11/06 10:56:02;;;;;;;8.30;2.15;;;;;;;;;;6163148;23;20040;-89
2022/11/06 10:58:30;;;;;;;6.95;2.50;;;;;;;;;;6178125;23;20012;-89
2022/11/06 11:00:58;;;;;;;9.50;2.03;;;;;;;;;;6175839;23;20012;-89
2022/11/06 11:03:30;;;;;;;6.53;2.22;;;;;;;;;;6177423;23;20009;-89
2022/11/06 11:05:57;;;;;;;4.05;1.55;;;;;;;;;;6173730;23;20012;-89
2022/11/06 11:08:34;;;;;;;4.93;2.08;;;;;;;;;;6176904;23;20016;-89
2022/11/06 11:11:03;;;;;;;7.68;1.58;;;;;;;;;;6177354;23;20005;-89
2022/11/06 11:13:29;;;;;;;9.50;1.85;;;;;;;;;;6175933;23;20009;-89
2022/11/06 11:15:55;;;;;;;7.10;2.10;;;;;;;;;;6151295;23;20025;-89
2022/11/06 11:18:30;;;;;;;4.38;1.73;;;;;;;;;;6177907;23;20036;-89
2022/11/06 11:21:05;;;;;;;6.50;2.00;;;;;;;;;;6174968;23;20341;-89
2022/11/06 11:23:31;;;;;;;15.32;2.47;;;;;;;;;;6177181;23;20075;-89
2022/11/06 11:26:11;;;;;;;2.80;1.60;;;;;;;;;;6174338;23;20013;-89
2022/11/06 11:28:39;;;;;;;3.38;1.50;;;;;;;;;;6176286;23;20009;-89
2022/11/06 11:31:08;;;;;;;5.32;1.50;;;;;;;;;;6176385;23;20025;-89
2022/11/06 11:33:34;;;;;;;5.93;2.30;;;;;;;;;;6175739;23;20007;-89
2022/11/06 11:36:02;;;;;;;8.20;1.90;;;;;;;;;;6151632;23;20017;-89
2022/11/06 11:38:28;;;;;;;9.00;2.10;;;;;;;;;;6176590;23;20120;-89
2022/11/06 11:41:13;;;;;;;10.90;2.00;;;;;;;;;;6178697;23;20367;-88
2022/11/06 11:43:40;;;;;;;24.38;2.20;;;;;;;;;;6175245;23;20013;-89
2022/11/06 11:46:09;;;;;;;8.13;2.90;;;;;;;;;;6176505;22;20013;-89
2022/11/06 11:48:45;;;;;;;7.22;1.73;;;;;;;;;;6175680;23;20489;-89
2022/11/06 11:51:14;;;;;;;4.57;1.10;;;;;;;;;;6174263;23;20013;-89
2022/11/06 11:53:40;;;;;;;8.18;1.92;;;;;;;;;;6176917;23;20009;-89
2022/11/06 11:56:07;;;;;;;2.75;1.38;;;;;;;;;;6149167;23;20444;-89
2022/11/06 11:58:33;;;;;;;7.68;2.85;;;;;;;;;;6151329;23;20421;-88
2022/11/06 12:01:01;;;;;;;8.02;2.42;;;;;;;;;;6150219;23;20013;-89
2022/11/06 12:03:32;;;;;;;6.47;1.90;;;;;;;;;;6175599;23;20065;-88
2022/11/06 12:06:24;;;;;;;2.90;1.70;;;;;;;;;;6173971;23;20421;-89
2022/11/06 12:08:52;;;;;;;5.82;2.13;;;;;;;;;;6174071;23;20098;-88
2022/11/06 12:11:29;;;;;;;4.97;1.25;;;;;;;;;;6175709;23;20032;-89
2022/11/06 12:14:14;;;;;;;5.00;1.98;;;;;;;;;;6174853;23;20005;-88
2022/11/06 12:16:40;;;;;;;13.43;2.13;;;;;;;;;;6176152;23;20096;-88
2022/11/06 12:19:07;;;;;;;14.35;2.63;;;;;;;;;;6173251;23;20071;-89
2022/11/06 12:21:35;;;;;;;7.00;2.15;;;;;;;;;;6175518;23;20454;-89
2022/11/06 12:24:06;;;;;;;8.15;2.20;;;;;;;;;;6174841;23;20048;-88
2022/11/06 12:26:59;;;;;;;5.00;1.90;;;;;;;;;;6175516;23;20012;-88
2022/11/06 12:29:31;;;;;;;9.35;2.85;;;;;;;;;;6170995;23;20005;-88
2022/11/06 12:32:09;;;;;;;9.05;2.28;;;;;;;;;;6173185;23;20004;-88
2022/11/06 12:34:44;;;;;;;11.40;2.15;;;;;;;;;;6173911;23;20004;-88
2022/11/06 12:37:11;;;;;;;11.87;2.23;;;;;;;;;;6171823;23;20538;-88
2022/11/06 12:39:38;;;;;;;6.10;1.60;;;;;;;;;;6174053;23;20009;-88
2022/11/06 12:42:06;;;;;;;6.97;2.05;;;;;;;;;;6176319;23;20005;-88
2022/11/06 12:44:32;;;;;;;5.88;1.90;;;;;;;;;;6176229;22;20005;-89
2022/11/06 12:47:28;;;;;;;7.55;1.73;;;;;;;;;;6155622;23;20440;-89
2022/11/06 12:50:10;;;;;;;11.40;1.50;;;;;;;;;;6073399;23;20410;-88
2022/11/06 12:52:55;;;;;;;4.00;1.92;;;;;;;;;;6179772;23;20040;-88
2022/11/06 12:55:21;;;;;;;7.20;2.13;;;;;;;;;;6180131;23;20019;-89
2022/11/06 12:58:11;;;;;;;6.38;1.67;;;;;;;;;;6177846;23;20012;-89
2022/11/06 13:00:49;;;;;;;12.50;2.17;;;;;;;;;;6180290;23;20000;-88
2022/11/06 13:03:24;;;;;;;5.45;1.45;;;;;;;;;;6179141;23;20004;-89
2022/11/06 13:06:01;;;;;;;3.33;1.52;;;;;;;;;;6177841;23;20146;-89
2022/11/06 13:08:30;;;;;;;11.68;2.08;;;;;;;;;;6180289;23;20095;-89
2022/11/06 13:11:01;;;;;;;5.35;1.90;;;;;;;;;;6205069;23;20337;-89
2022/11/06 13:13:42;;;;;;;10.23;1.55;;;;;;;;;;6178985;23;20480;-89
2022/11/06 13:16:22;;;;;;;6.78;1.45;;;;;;;;;;6179113;23;20046;-89
2022/11/06 13:18:50;;;;;;;6.55;1.83;;;;;;;;;;6179272;23;20015;-89
2022/11/06 13:21:23;;;;;;;4.95;1.63;;;;;;;;;;6178149;23;20067;-88
2022/11/06 13:23:50;;;;;;;9.52;1.77;;;;;;;;;;6178103;23;20534;-89
2022/11/06 13:26:30;;;;;;;4.32;1.45;;;;;;;;;;6178271;23;20047;-88
2022/11/06 13:28:58;;;;;;;2.83;1.02;;;;;;;;;;6178656;23;20011;-89
2022/11/06 13:31:33;;;;;;;8.73;1.98;;;;;;;;;;6178992;23;20588;-89
2022/11/06 13:34:00;;;;;;;2.00;1.10;;;;;;;;;;6178163;23;20013;-89
2022/11/06 13:36:27;;;;;;;2.13;0.98;;;;;;;;;;6180273;23;20012;-89
2022/11/06 13:38:55;;;;;;;1.80;1.15;;;;;;;;;;6152849;23;20051;-88
2022/11/06 13:41:23;;;;;;;7.03;2.03;;;;;;;;;;6180607;23;20024;-88
2022/11/06 13:44:00;;;;;;;11.43;2.30;;;;;;;;;;6179690;23;20035;-89
2022/11/06 13:46:34;;;;;;;6.78;2.03;;;;;;;;;;6174880;22;20017;-89
2022/11/06 13:49:06;;;;;;;4.05;1.48;;;;;;;;;;6174686;23;20384;-88
2022/11/06 13:51:32;;;;;;;7.03;2.10;;;;;;;;;;6173851;23;20005;-89
2022/11/06 13:54:06;;;;;;;2.33;2.05;;;;;;;;;;6174500;23;20004;-89
2022/11/06 13:56:31;;;;;;;5.45;1.50;;;;;;;;;;6172146;23;20009;-89
2022/11/06 13:59:10;;;;;;;4.75;1.25;;;;;;;;;;6174803;23;20040;-89
2022/11/06 14:01:36;;;;;;;11.32;1.48;;;;;;;;;;6173416;23;20009;-89
2022/11/06 14:04:34;;;;;;;6.80;1.50;;;;;;;;;;6173967;23;20008;-89
2022/11/06 14:07:02;;;;;;;8.00;2.00;;;;;;;;;;6141319;23;20072;-89
2022/11/06 14:09:29;;;;;;;3.40;1.02;;;;;;;;;;6173549;23;20017;-88
2022/11/06 14:11:57;;;;;;;5.13;1.48;;;;;;;;;;6177115;23;20009;-89
2022/11/06 14:14:25;;;;;;;6.38;1.70;;;;;;;;;;6178876;23;20009;-89
2022/11/06 14:17:09;;;;;;;6.20;2.22;;;;;;;;;;6184574;23;20000;-89
2022/11/06 14:19:35;;;;;;;8.90;1.92;;;;;;;;;;6174586;23;20033;-89
2022/11/06 14:22:08;;;;;;;13.23;1.63;;;;;;;;;;6177753;23;20051;-90
2022/11/06 14:24:41;;;;;;;6.40;1.83;;;;;;;;;;6174606;23;20376;-89
2022/11/06 14:27:33;;;;;;;8.25;1.77;;;;;;;;;;6150215;23;20017;-89
2022/11/06 14:30:01;;;;;;;4.35;1.58;;;;;;;;;;6141451;23;20006;-89
2022/11/06 14:32:30;;;;;;;4.65;1.00;;;;;;;;;;6174919;23;20008;-89
2022/11/06 14:34:56;;;;;;;6.72;1.52;;;;;;;;;;6175116;23;20001;-89
2022/11/06 14:37:25;;;;;;;10.60;1.42;;;;;;;;;;6174822;23;20425;-89
2022/11/06 14:39:51;;;;;;;8.85;1.95;;;;;;;;;;6175325;23;20368;-89
2022/11/06 14:42:23;;;;;;;3.05;1.40;;;;;;;;;;6173921;23;20013;-88
2022/11/06 14:45:13;;;;;;;7.78;1.67;;;;;;;;;;6174980;23;20412;-89
2022/11/06 14:47:45;;;;;;;9.02;1.80;;;;;;;;;;6177724;23;20032;-89
2022/11/06 14:50:20;;;;;;;3.30;1.45;;;;;;;;;;6181255;23;20009;-89
2022/11/06 14:52:49;;;;;;;8.23;2.20;;;;;;;;;;6205863;23;20005;-89
2022/11/06 14:55:25;;;;;;;9.15;1.80;;;;;;;;;;6180142;23;20012;-89
2022/11/06 14:57:52;;;;;;;4.40;2.70;;;;;;;;;;6180171;23;20019;-88
2022/11/06 15:00:27;;;;;;;4.80;1.83;;;;;;;;;;6181420;23;20016;-88
2022/11/06 15:02:54;;;;;;;5.43;1.75;;;;;;;;;;6206318;23;20492;-89
2022/11/06 15:05:20;;;;;;;6.75;2.05;;;;;;;;;;6179783;23;20004;-89
2022/11/06 15:07:47;;;;;;;5.40;1.35;;;;;;;;;;6206314;23;20007;-89
2022/11/06 15:10:31;;;;;;;3.65;1.92;;;;;;;;;;6182080;23;20009;-88